Hillsdale, Michigan
Current Conditions -  °F | °C
As of 12:15 AM on Sunday 26 Oct 2014 (Local Time) from KJYM Reporting Station
Clear Clear  
Wind Chill: 53°   Ceiling: Unl
Heat Index: 53°   Visibility: 10mi
Dew Point: 32°   Wind: 14mph
Humidity: 45%   Direction: 310°NW
Pressure: 29.88"   Gusts: 20mph
Location:  41.92°N, 84.63°W
Report Text: KJYM 260415Z AUTO 31012G17KT 10SM CLR 12/00 A2988 RMK AO2 T01190002
Loading
Personal Weather Stations






























Interactive Weather Map New forecast layout! Learn more

10-Day Weather Forecast

Advertisements
Track Severe Weather on mobile